createdAt,value
2018-08-14T00:00:42.096Z,18.60
2018-08-14T00:03:15.061Z,18.80
2018-08-14T00:05:44.586Z,18.70
2018-08-14T00:08:14.143Z,18.70
2018-08-14T00:10:43.524Z,18.80
2018-08-14T00:13:14.158Z,18.70
2018-08-14T00:15:45.366Z,18.60
2018-08-14T00:18:14.421Z,18.40
2018-08-14T00:20:43.453Z,18.30
2018-08-14T00:23:12.529Z,18.20
2018-08-14T00:25:41.601Z,18.20
2018-08-14T00:28:11.781Z,18.30
2018-08-14T00:30:41.006Z,18.30
2018-08-14T00:33:10.074Z,18.30
2018-08-14T00:35:39.121Z,18.40
2018-08-14T00:38:08.422Z,18.30
2018-08-14T00:40:37.558Z,18.20
2018-08-14T00:43:09.651Z,18.40
2018-08-14T00:45:38.674Z,18.30
2018-08-14T00:48:08.566Z,18.50
2018-08-14T00:50:37.622Z,18.50
2018-08-14T00:53:08.054Z,18.30
2018-08-14T00:55:37.625Z,18.30
2018-08-14T00:58:07.606Z,18.30
2018-08-14T01:00:37.553Z,18.20
2018-08-14T01:03:11.558Z,18.30
2018-08-14T01:05:40.614Z,18.30
2018-08-14T01:08:09.804Z,18.20
2018-08-14T01:10:39.065Z,18.10
2018-08-14T01:13:08.074Z,18.20
2018-08-14T01:15:37.770Z,18.10
2018-08-14T01:18:07.652Z,18.30
2018-08-14T01:20:41.865Z,18.30
2018-08-14T01:23:10.942Z,18.30
2018-08-14T01:25:40.445Z,18.30
2018-08-14T01:28:09.598Z,18.20
2018-08-14T01:30:38.674Z,18.10
2018-08-14T01:33:07.881Z,18.10
2018-08-14T01:35:37.870Z,18.40
2018-08-14T01:38:08.118Z,18.40
2018-08-14T01:40:37.899Z,18.30
2018-08-14T01:43:07.966Z,18.20
2018-08-14T01:45:38.083Z,18.20
2018-08-14T01:48:07.998Z,18.20
2018-08-14T01:50:38.062Z,18.40
2018-08-14T01:53:08.129Z,18.40
2018-08-14T01:55:38.050Z,18.40
2018-08-14T01:58:08.090Z,18.50
2018-08-14T02:00:38.097Z,18.50
2018-08-14T02:03:08.053Z,18.30
2018-08-14T02:05:38.062Z,18.40
2018-08-14T02:08:08.087Z,18.40
2018-08-14T02:10:38.258Z,18.40
2018-08-14T02:13:08.381Z,18.50
2018-08-14T02:15:38.250Z,18.60
2018-08-14T02:18:08.542Z,18.50
2018-08-14T02:20:38.194Z,18.20
2018-08-14T02:23:08.122Z,18.30
2018-08-14T02:25:38.237Z,18.30
2018-08-14T02:28:08.266Z,18.30
2018-08-14T02:30:38.250Z,18.30
2018-08-14T02:33:08.410Z,18.20
2018-08-14T02:35:38.313Z,18.30
2018-08-14T02:38:08.387Z,18.20
2018-08-14T02:40:38.415Z,18.10
2018-08-14T02:43:08.486Z,18.20
2018-08-14T02:45:38.449Z,18.10
2018-08-14T02:48:09.846Z,18.20
2018-08-14T02:50:38.874Z,18.20
2018-08-14T02:53:09.892Z,18.10
2018-08-14T02:55:38.919Z,17.90
2018-08-14T02:58:08.536Z,18.10
2018-08-14T03:00:38.480Z,18.00
2018-08-14T03:03:08.505Z,17.90
2018-08-14T03:05:38.542Z,17.90
2018-08-14T03:08:08.549Z,17.90
2018-08-14T03:10:38.603Z,17.90
2018-08-14T03:13:08.630Z,17.90
2018-08-14T03:15:38.578Z,17.90
2018-08-14T03:18:08.579Z,18.00
2018-08-14T03:20:39.455Z,17.90
2018-08-14T03:23:10.078Z,18.00
2018-08-14T03:25:39.186Z,18.10
2018-08-14T03:28:08.701Z,18.10
2018-08-14T03:30:38.775Z,17.90
2018-08-14T03:33:08.838Z,17.90
2018-08-14T03:35:38.786Z,17.90
2018-08-14T03:38:08.993Z,17.80
2018-08-14T03:40:38.985Z,18.00
2018-08-14T03:43:09.018Z,18.00
2018-08-14T03:45:38.873Z,17.90
2018-08-14T03:48:09.017Z,17.80
2018-08-14T03:50:38.999Z,17.70
2018-08-14T03:53:09.533Z,17.60
2018-08-14T03:55:38.986Z,17.80
2018-08-14T03:58:09.015Z,17.70
2018-08-14T04:00:39.113Z,17.70
2018-08-14T04:03:09.117Z,17.60
2018-08-14T04:05:39.076Z,17.80
2018-08-14T04:08:09.090Z,17.70
2018-08-14T04:10:39.155Z,17.70
2018-08-14T04:13:09.098Z,17.60
2018-08-14T04:15:39.188Z,17.70
2018-08-14T04:18:10.031Z,17.80
2018-08-14T04:20:39.675Z,17.60
2018-08-14T04:23:09.262Z,17.60
2018-08-14T04:25:39.314Z,17.80
2018-08-14T04:28:09.374Z,17.90
2018-08-14T04:30:39.388Z,17.90
2018-08-14T04:33:09.482Z,17.80
2018-08-14T04:35:39.458Z,17.80
2018-08-14T04:38:09.438Z,17.80
2018-08-14T04:40:39.526Z,17.70
2018-08-14T04:43:09.542Z,18.10
2018-08-14T04:45:39.587Z,18.00
2018-08-14T04:48:09.574Z,18.00
2018-08-14T04:50:39.622Z,18.10
2018-08-14T04:53:09.642Z,18.10
2018-08-14T04:55:39.618Z,18.20
2018-08-14T04:58:09.634Z,18.20
2018-08-14T05:00:39.675Z,18.30
2018-08-14T05:03:09.719Z,18.30
2018-08-14T05:05:39.722Z,18.40
2018-08-14T05:08:09.758Z,18.30
2018-08-14T05:10:39.928Z,18.30
2018-08-14T05:13:09.892Z,18.50
2018-08-14T05:15:39.838Z,18.50
2018-08-14T05:18:09.804Z,18.50
2018-08-14T05:20:40.039Z,18.60
2018-08-14T05:23:09.977Z,18.50
2018-08-14T05:25:39.943Z,18.50
2018-08-14T05:28:10.011Z,18.50
2018-08-14T05:30:40.022Z,18.60
2018-08-14T05:33:09.986Z,18.50
2018-08-14T05:35:40.051Z,18.40
2018-08-14T05:38:10.010Z,18.40
2018-08-14T05:40:40.072Z,18.40
2018-08-14T05:43:10.190Z,18.50
2018-08-14T05:45:40.107Z,18.60
2018-08-14T05:48:10.122Z,18.50
2018-08-14T05:50:40.366Z,18.40
2018-08-14T05:53:10.250Z,18.50
2018-08-14T05:55:40.324Z,18.40
2018-08-14T05:58:10.257Z,18.40
2018-08-14T06:00:40.238Z,18.30
2018-08-14T06:03:10.478Z,18.40
2018-08-14T06:05:40.430Z,18.30
2018-08-14T06:08:10.290Z,18.50
2018-08-14T06:10:40.438Z,18.50
2018-08-14T06:13:10.542Z,18.30
2018-08-14T06:15:40.391Z,18.50
2018-08-14T06:18:10.374Z,18.50
2018-08-14T06:20:40.414Z,18.50
2018-08-14T06:23:10.577Z,18.60
2018-08-14T06:25:41.610Z,18.50
2018-08-14T06:28:10.649Z,18.50
2018-08-14T06:30:40.550Z,18.60
2018-08-14T06:33:10.609Z,18.70
2018-08-14T06:35:40.740Z,18.70
2018-08-14T06:38:10.690Z,18.60
2018-08-14T06:40:40.662Z,18.50
2018-08-14T06:43:10.970Z,18.50
2018-08-14T06:45:40.614Z,18.60
2018-08-14T06:48:10.826Z,18.50
2018-08-14T06:50:40.815Z,18.50
2018-08-14T06:53:10.851Z,18.70
2018-08-14T06:55:40.022Z,18.80
2018-08-14T06:58:09.167Z,18.60
2018-08-14T07:00:38.235Z,18.60
2018-08-14T07:03:07.421Z,18.70
2018-08-14T07:05:36.673Z,18.80
2018-08-14T07:08:06.342Z,18.90
2018-08-14T07:10:35.666Z,18.90
2018-08-14T07:13:04.766Z,18.90
2018-08-14T07:15:33.929Z,18.90
2018-08-14T07:18:03.031Z,19.00
2018-08-14T07:20:32.140Z,19.20
2018-08-14T07:23:01.280Z,19.30
2018-08-14T07:25:30.370Z,19.50
2018-08-14T07:28:00.424Z,19.40
2018-08-14T07:30:29.502Z,19.30
2018-08-14T07:32:58.555Z,19.50
2018-08-14T07:35:27.590Z,19.60
2018-08-14T07:37:56.708Z,19.60
2018-08-14T07:40:26.221Z,19.60
2018-08-14T07:42:55.449Z,19.70
2018-08-14T07:45:24.658Z,19.70
2018-08-14T07:47:53.751Z,19.70
2018-08-14T07:50:22.866Z,19.80
2018-08-14T07:52:51.982Z,20.00
2018-08-14T07:55:21.008Z,20.00
2018-08-14T07:57:50.012Z,19.90
2018-08-14T08:00:20.221Z,19.80
2018-08-14T08:02:50.343Z,19.60
2018-08-14T08:05:19.902Z,19.60
2018-08-14T08:07:49.532Z,19.70
2018-08-14T08:10:18.969Z,19.60
2018-08-14T08:12:48.526Z,19.80
2018-08-14T08:15:18.963Z,20.00
2018-08-14T08:17:48.527Z,20.10
2018-08-14T08:20:27.974Z,20.20
2018-08-14T08:22:57.526Z,20.40
2018-08-14T08:25:28.099Z,20.30
2018-08-14T08:27:57.995Z,20.50
2018-08-14T08:30:27.643Z,20.60
2018-08-14T08:32:56.666Z,21.00
2018-08-14T08:35:26.494Z,21.00
2018-08-14T08:37:55.648Z,20.90
2018-08-14T08:40:24.716Z,20.90
2018-08-14T08:42:53.767Z,20.40
2018-08-14T08:45:22.963Z,20.60
2018-08-14T08:48:07.661Z,20.90
2018-08-14T08:50:36.714Z,20.80
2018-08-14T08:53:06.136Z,20.70
2018-08-14T08:55:35.181Z,20.50
2018-08-14T08:58:04.293Z,20.60
2018-08-14T09:00:33.295Z,20.70
2018-08-14T09:03:02.386Z,20.60
2018-08-14T09:05:31.429Z,20.50
2018-08-14T09:08:00.582Z,20.80
2018-08-14T09:10:29.610Z,21.00
2018-08-14T09:12:58.710Z,21.10
2018-08-14T09:15:27.791Z,20.90
2018-08-14T09:17:56.870Z,21.40
2018-08-14T09:20:27.070Z,21.60
2018-08-14T09:22:56.143Z,21.60
2018-08-14T09:25:25.322Z,21.60
2018-08-14T09:27:54.477Z,21.40
2018-08-14T09:30:23.528Z,21.30
2018-08-14T09:32:52.666Z,21.10
2018-08-14T09:35:21.758Z,21.20
2018-08-14T09:37:50.816Z,21.00
2018-08-14T09:40:21.134Z,20.90
2018-08-14T09:42:53.267Z,21.00
2018-08-14T09:45:23.126Z,20.90
2018-08-14T09:47:52.383Z,20.60
2018-08-14T09:50:24.614Z,20.40
2018-08-14T09:52:53.756Z,20.80
2018-08-14T09:55:22.964Z,21.20
2018-08-14T09:57:53.104Z,21.50
2018-08-14T10:00:31.426Z,22.20
2018-08-14T10:03:07.006Z,22.80
2018-08-14T10:05:41.288Z,23.00
2018-08-14T10:08:14.042Z,22.40
2018-08-14T10:10:43.086Z,21.70
2018-08-14T10:13:13.350Z,21.30
2018-08-14T10:15:42.526Z,21.00
2018-08-14T10:18:16.606Z,20.70
2018-08-14T10:20:45.784Z,20.50
2018-08-14T10:23:14.782Z,20.40
2018-08-14T10:25:43.922Z,20.30
2018-08-14T10:28:17.437Z,20.30
2018-08-14T10:30:46.567Z,20.20
2018-08-14T10:33:15.599Z,20.20
2018-08-14T10:35:44.630Z,20.20
2018-08-14T10:38:13.986Z,20.20
2018-08-14T10:40:43.054Z,20.00
2018-08-14T10:43:12.293Z,20.00
2018-08-14T10:45:41.367Z,20.10
2018-08-14T10:48:10.433Z,20.10
2018-08-14T10:50:39.558Z,20.20
2018-08-14T10:53:08.706Z,20.30
2018-08-14T10:55:37.803Z,20.30
2018-08-14T10:58:06.949Z,20.40
2018-08-14T11:00:35.990Z,20.50
2018-08-14T11:03:05.270Z,20.60
2018-08-14T11:05:34.517Z,20.60
2018-08-14T11:08:03.637Z,20.90
2018-08-14T11:10:37.978Z,20.80
2018-08-14T11:13:07.003Z,21.00
2018-08-14T11:15:36.116Z,21.00
2018-08-14T11:18:05.324Z,22.20
2018-08-14T11:20:34.580Z,23.00
2018-08-14T11:23:03.646Z,22.70
2018-08-14T11:25:32.748Z,22.60
2018-08-14T11:28:01.843Z,22.90
2018-08-14T11:30:30.931Z,23.40
2018-08-14T11:33:00.103Z,24.10
2018-08-14T11:35:34.587Z,23.30
2018-08-14T11:38:03.775Z,22.70
2018-08-14T11:40:32.810Z,23.30
2018-08-14T11:43:02.105Z,24.00
2018-08-14T11:45:31.321Z,24.40
2018-08-14T11:48:00.422Z,24.00
2018-08-14T11:50:29.622Z,23.70
2018-08-14T11:52:58.738Z,23.90
2018-08-14T11:55:27.808Z,24.40
2018-08-14T11:57:57.073Z,24.20
2018-08-14T12:00:27.298Z,25.00
2018-08-14T12:02:57.446Z,25.50
2018-08-14T12:05:27.418Z,25.80
2018-08-14T12:07:56.470Z,26.50
2018-08-14T12:10:25.544Z,26.60
2018-08-14T12:12:54.761Z,26.10
2018-08-14T12:15:23.867Z,26.10
2018-08-14T12:17:53.003Z,26.40
2018-08-14T12:20:23.169Z,26.70
2018-08-14T12:22:52.316Z,27.30
2018-08-14T12:25:21.832Z,26.80
2018-08-14T12:27:50.921Z,27.50
2018-08-14T12:30:21.554Z,28.00
2018-08-14T12:32:50.902Z,27.90
2018-08-14T12:35:20.014Z,28.00
2018-08-14T12:37:49.286Z,28.50
2018-08-14T12:40:19.005Z,27.30
2018-08-14T12:42:48.114Z,27.10
2018-08-14T12:45:21.458Z,26.80
2018-08-14T12:47:51.511Z,27.10
2018-08-14T12:50:21.342Z,26.10
2018-08-14T12:52:50.746Z,25.90
2018-08-14T12:55:19.950Z,25.50
2018-08-14T12:57:49.263Z,26.10
2018-08-14T13:00:27.525Z,26.50
2018-08-14T13:02:56.786Z,27.20
2018-08-14T13:05:26.624Z,26.80
2018-08-14T13:07:55.968Z,26.70
2018-08-14T13:10:25.086Z,26.10
2018-08-14T13:12:54.258Z,25.40
2018-08-14T13:15:23.338Z,24.70
2018-08-14T13:18:04.196Z,24.60
2018-08-14T13:20:33.582Z,24.60
2018-08-14T13:23:02.603Z,24.30
2018-08-14T13:25:31.779Z,24.00
2018-08-14T13:28:00.991Z,23.90
2018-08-14T13:30:30.049Z,23.90
2018-08-14T13:32:59.282Z,23.90
2018-08-14T13:35:28.328Z,24.10
2018-08-14T13:37:57.456Z,24.00
2018-08-14T13:40:27.337Z,23.50
2018-08-14T13:42:56.459Z,23.20
2018-08-14T13:45:25.609Z,23.00
2018-08-14T13:47:54.663Z,23.00
2018-08-14T13:50:23.817Z,23.20
2018-08-14T13:52:52.848Z,23.30
2018-08-14T13:55:22.138Z,23.20
2018-08-14T13:57:51.194Z,23.10
2018-08-14T14:00:23.701Z,22.90
2018-08-14T14:02:52.891Z,22.80
2018-08-14T14:05:22.034Z,22.70
2018-08-14T14:07:51.278Z,22.80
2018-08-14T14:10:20.985Z,22.80
2018-08-14T14:12:50.125Z,23.10
2018-08-14T14:15:19.993Z,23.20
2018-08-14T14:17:50.145Z,23.50
2018-08-14T14:20:22.443Z,24.00
2018-08-14T14:22:51.619Z,24.20
2018-08-14T14:25:20.861Z,23.90
2018-08-14T14:27:50.007Z,23.70
2018-08-14T14:30:19.234Z,23.60
2018-08-14T14:32:48.352Z,23.60
2018-08-14T14:35:17.433Z,24.00
2018-08-14T14:37:46.583Z,24.40
2018-08-14T14:40:24.071Z,24.10
2018-08-14T14:42:58.398Z,23.70
2018-08-14T14:45:27.514Z,23.70
2018-08-14T14:47:56.574Z,23.80
2018-08-14T14:50:25.672Z,23.60
2018-08-14T14:52:54.850Z,23.60
2018-08-14T14:55:24.541Z,23.50
2018-08-14T14:57:53.777Z,23.40
2018-08-14T15:00:45.802Z,23.10
2018-08-14T15:03:14.912Z,22.90
2018-08-14T15:05:43.926Z,22.90
2018-08-14T15:08:13.075Z,22.80
2018-08-14T15:10:42.227Z,22.70
2018-08-14T15:13:11.467Z,22.70
2018-08-14T15:15:40.629Z,22.80
2018-08-14T15:18:09.742Z,22.80
2018-08-14T15:20:38.777Z,22.90
2018-08-14T15:23:07.854Z,23.00
2018-08-14T15:25:36.893Z,22.90
2018-08-14T15:29:12.350Z,22.90
2018-08-14T15:31:44.218Z,22.80
2018-08-14T15:34:16.050Z,22.80
2018-08-14T15:36:47.410Z,22.90
2018-08-14T15:39:18.052Z,22.90
2018-08-14T15:41:47.472Z,22.90
2018-08-14T15:44:16.586Z,23.00
2018-08-14T15:46:46.662Z,23.10
2018-08-14T15:49:15.816Z,23.60
2018-08-14T15:51:45.090Z,23.60
2018-08-14T15:54:15.553Z,23.60
2018-08-14T15:56:45.418Z,23.40
2018-08-14T15:59:15.190Z,23.50
2018-08-14T16:01:47.327Z,23.30
2018-08-14T16:04:18.219Z,23.10
2018-08-14T16:06:47.522Z,23.00
2018-08-14T16:09:20.403Z,22.90
2018-08-14T16:11:49.861Z,22.80
2018-08-14T16:14:18.917Z,22.80
2018-08-14T16:16:48.066Z,22.80
2018-08-14T16:19:17.871Z,22.80
2018-08-14T16:21:48.650Z,22.80
2018-08-14T16:24:19.366Z,23.00
2018-08-14T16:26:48.417Z,23.40
2018-08-14T16:29:17.703Z,23.50
2018-08-14T16:31:47.990Z,23.40
2018-08-14T16:34:19.412Z,23.40
2018-08-14T16:36:50.841Z,23.70
2018-08-14T16:39:20.145Z,23.80
2018-08-14T16:41:49.922Z,23.90
2018-08-14T16:44:21.066Z,24.00
2018-08-14T16:46:50.216Z,23.90
2018-08-14T16:49:19.326Z,23.50
2018-08-14T16:51:48.538Z,23.50
2018-08-14T16:54:17.770Z,23.60
2018-08-14T16:56:46.993Z,23.40
2018-08-14T16:59:16.226Z,23.40
2018-08-14T17:01:45.395Z,23.10
2018-08-14T17:04:14.417Z,23.00
2018-08-14T17:06:43.537Z,23.10
2018-08-14T17:09:12.581Z,23.20
2018-08-14T17:11:41.737Z,23.10
2018-08-14T17:14:10.918Z,23.10
2018-08-14T17:16:39.949Z,23.20
2018-08-14T17:19:09.019Z,23.30
2018-08-14T17:21:36.597Z,23.30
2018-08-14T17:24:05.595Z,23.30
2018-08-14T17:26:34.853Z,23.20
2018-08-14T17:29:03.878Z,23.10
2018-08-14T17:31:33.058Z,23.00
2018-08-14T17:34:02.181Z,22.90
2018-08-14T17:36:31.293Z,23.00
2018-08-14T17:39:00.371Z,22.80
2018-08-14T17:41:29.485Z,22.90
2018-08-14T17:43:58.570Z,22.80
2018-08-14T17:46:27.606Z,22.80
2018-08-14T17:48:56.784Z,22.70
2018-08-14T17:51:30.018Z,22.50
2018-08-14T17:53:59.054Z,22.40
2018-08-14T17:56:28.494Z,22.20
2018-08-14T17:58:57.657Z,22.20
2018-08-14T18:01:27.226Z,22.20
2018-08-14T18:03:56.602Z,22.00
2018-08-14T18:06:25.918Z,22.00
2018-08-14T18:08:55.214Z,21.80
2018-08-14T18:11:24.485Z,21.80
2018-08-14T18:13:53.621Z,21.90
2018-08-14T18:16:23.030Z,21.80
2018-08-14T18:18:52.092Z,21.80
2018-08-14T18:21:21.152Z,21.70
2018-08-14T18:23:50.261Z,21.70
2018-08-14T18:26:19.399Z,21.70
2018-08-14T18:28:48.599Z,21.50
2018-08-14T18:31:17.762Z,21.50
2018-08-14T18:33:46.906Z,21.50
2018-08-14T18:36:18.434Z,21.50
2018-08-14T18:38:51.987Z,21.50
2018-08-14T18:41:21.176Z,21.50
2018-08-14T18:43:50.482Z,21.50
2018-08-14T18:46:19.633Z,21.40
2018-08-14T18:48:48.850Z,21.50
2018-08-14T18:51:18.056Z,21.50
2018-08-14T18:53:47.222Z,21.40
2018-08-14T18:56:16.330Z,21.40
2018-08-14T18:58:45.466Z,21.40
2018-08-14T19:01:14.722Z,21.50
2018-08-14T19:03:43.850Z,21.20
2018-08-14T19:06:13.006Z,21.20
2018-08-14T19:08:44.517Z,21.30
2018-08-14T19:11:13.815Z,21.30
2018-08-14T19:13:43.634Z,21.10
2018-08-14T19:16:13.650Z,21.20
2018-08-14T19:18:42.682Z,21.10
2018-08-14T19:21:12.594Z,21.00
2018-08-14T19:23:45.253Z,20.90
2018-08-14T19:26:15.542Z,20.70
2018-08-14T19:28:45.382Z,20.70
2018-08-14T19:31:15.098Z,20.70
2018-08-14T19:33:44.959Z,20.90
2018-08-14T19:36:15.254Z,20.90
2018-08-14T19:38:45.886Z,20.90
2018-08-14T19:41:15.858Z,20.90
2018-08-14T19:43:44.990Z,20.90
2018-08-14T19:46:14.031Z,20.90
2018-08-14T19:48:43.598Z,21.00
2018-08-14T19:51:12.758Z,21.00
2018-08-14T19:53:41.806Z,20.90
2018-08-14T19:56:10.991Z,20.90
2018-08-14T19:58:40.086Z,20.90
2018-08-14T20:01:09.190Z,20.90
2018-08-14T20:03:38.418Z,20.90
2018-08-14T20:06:07.531Z,20.80
2018-08-14T20:08:36.605Z,20.80
2018-08-14T20:11:05.739Z,20.80
2018-08-14T20:13:34.772Z,20.70
2018-08-14T20:16:09.811Z,20.50
2018-08-14T20:18:40.862Z,20.50
2018-08-14T20:21:10.571Z,20.50
2018-08-14T20:26:37.090Z,20.60
2018-08-14T20:29:06.470Z,20.70
2018-08-14T20:31:35.465Z,20.60
2018-08-14T20:34:04.482Z,20.40
2018-08-14T20:36:33.462Z,20.40
2018-08-14T20:39:02.489Z,20.50
2018-08-14T20:41:31.514Z,20.50
2018-08-14T20:44:01.523Z,20.50
2018-08-14T20:46:31.526Z,20.50
2018-08-14T20:49:00.589Z,20.60
2018-08-14T20:51:29.688Z,20.50
2018-08-14T20:53:58.697Z,20.50
2018-08-14T20:56:27.734Z,20.50
2018-08-14T20:58:56.786Z,20.50
2018-08-14T21:01:25.810Z,20.50
2018-08-14T21:03:54.828Z,20.40
2018-08-14T21:06:23.938Z,20.40
2018-08-14T21:08:52.952Z,20.40
2018-08-14T21:11:22.026Z,20.40
2018-08-14T21:13:51.044Z,20.20
2018-08-14T21:16:25.800Z,20.20
2018-08-14T21:18:56.499Z,20.30
2018-08-14T21:21:25.905Z,20.50
2018-08-14T21:23:55.110Z,20.40
2018-08-14T21:26:24.538Z,20.20
2018-08-14T21:28:53.558Z,20.50
2018-08-14T21:31:22.613Z,20.40
2018-08-14T21:33:51.727Z,20.30
2018-08-14T21:36:20.809Z,20.20
2018-08-14T21:38:49.818Z,20.20
2018-08-14T21:41:18.845Z,20.30
2018-08-14T21:43:47.918Z,20.30
2018-08-14T21:46:16.956Z,20.20
2018-08-14T21:48:45.937Z,20.10
2018-08-14T21:51:14.985Z,20.00
2018-08-14T21:53:44.027Z,20.10
2018-08-14T21:56:13.038Z,20.20
2018-08-14T21:58:42.074Z,20.20
2018-08-14T22:01:13.958Z,20.20
2018-08-14T22:03:46.540Z,20.00
2018-08-14T22:06:16.933Z,20.10
2018-08-14T22:08:46.866Z,20.10
2018-08-14T22:11:17.849Z,19.80
2018-08-14T22:13:46.951Z,19.90
2018-08-14T22:16:16.101Z,20.00
2018-08-14T22:18:45.087Z,19.90
2018-08-14T22:21:14.277Z,19.80
2018-08-14T22:23:43.256Z,19.90
2018-08-14T22:26:12.250Z,19.80
2018-08-14T22:28:41.247Z,20.00
2018-08-14T22:31:10.470Z,20.00
2018-08-14T22:33:39.489Z,19.90
2018-08-14T22:36:08.499Z,19.90
2018-08-14T22:38:37.506Z,19.80
2018-08-14T22:41:06.498Z,19.70
2018-08-14T22:43:35.500Z,19.60
2018-08-14T22:46:04.554Z,19.70
2018-08-14T22:48:33.590Z,19.70
2018-08-14T22:51:02.594Z,19.60
2018-08-14T22:53:31.583Z,19.70
2018-08-14T22:56:00.614Z,19.70
2018-08-14T22:58:29.618Z,19.60
2018-08-14T23:00:58.653Z,19.50
2018-08-14T23:03:27.750Z,19.50
2018-08-14T23:05:56.767Z,19.60
2018-08-14T23:08:25.785Z,19.70
2018-08-14T23:10:54.778Z,19.70
2018-08-14T23:13:23.786Z,19.70
2018-08-14T23:15:58.097Z,19.70
2018-08-14T23:18:27.136Z,19.70
2018-08-14T23:20:56.138Z,19.90
2018-08-14T23:23:25.143Z,20.20
2018-08-14T23:25:54.117Z,20.20
2018-08-14T23:28:23.142Z,20.10
2018-08-14T23:30:52.130Z,20.00
2018-08-14T23:33:21.117Z,19.90
2018-08-14T23:35:50.101Z,19.90
2018-08-14T23:38:19.091Z,19.80
2018-08-14T23:40:48.086Z,19.80
2018-08-14T23:43:17.083Z,19.70
2018-08-14T23:45:46.098Z,19.80
2018-08-14T23:48:15.162Z,19.70
2018-08-14T23:50:44.166Z,19.70
2018-08-14T23:53:13.156Z,19.70
2018-08-14T23:55:42.148Z,19.70
2018-08-14T23:58:11.146Z,19.70
